createdAt,value
2019-03-01T00:00:04.632Z,18.30
2019-03-01T00:03:09.491Z,18.30
2019-03-01T00:06:31.719Z,18.20
2019-03-01T00:10:28.538Z,18.20
2019-03-01T00:14:42.026Z,18.10
2019-03-01T00:18:25.902Z,18.10
2019-03-01T00:22:15.755Z,18.10
2019-03-01T00:26:05.490Z,18.00
2019-03-01T00:29:49.991Z,18.00
2019-03-01T00:33:15.451Z,17.90
2019-03-01T00:36:58.231Z,17.90
2019-03-01T00:40:55.736Z,17.90
2019-03-01T00:44:44.526Z,17.80
2019-03-01T00:47:46.228Z,17.80
2019-03-01T00:50:47.842Z,17.70
2019-03-01T00:53:49.263Z,17.70
2019-03-01T00:56:50.714Z,17.70
2019-03-01T00:59:52.182Z,17.60
2019-03-01T01:02:53.573Z,17.60
2019-03-01T01:05:55.183Z,17.60
2019-03-01T01:08:56.588Z,17.60
2019-03-01T01:11:57.963Z,17.50
2019-03-01T01:14:59.367Z,17.50
2019-03-01T01:18:00.749Z,17.50
2019-03-01T01:21:02.139Z,17.50
2019-03-01T01:24:03.548Z,17.40
2019-03-01T01:27:05.064Z,17.40
2019-03-01T01:30:07.367Z,17.40
2019-03-01T01:33:08.828Z,17.40
2019-03-01T01:36:10.233Z,17.30
2019-03-01T01:39:12.230Z,17.30
2019-03-01T01:42:13.630Z,17.30
2019-03-01T01:45:15.030Z,17.30
2019-03-01T01:48:16.447Z,17.20
2019-03-01T01:51:17.949Z,17.20
2019-03-01T01:54:19.343Z,17.20
2019-03-01T01:57:20.784Z,17.10
2019-03-01T02:00:22.174Z,17.10
2019-03-01T02:03:23.658Z,17.10
2019-03-01T02:06:25.242Z,17.10
2019-03-01T02:09:27.607Z,17.00
2019-03-01T02:12:28.980Z,17.00
2019-03-01T02:15:30.390Z,17.00
2019-03-01T02:18:31.779Z,17.00
2019-03-01T02:21:33.347Z,16.90
2019-03-01T02:24:34.694Z,16.90
2019-03-01T02:27:36.097Z,16.90
2019-03-01T02:30:37.489Z,16.90
2019-03-01T02:33:38.875Z,16.90
2019-03-01T02:36:40.293Z,16.80
2019-03-01T02:39:41.898Z,16.80
2019-03-01T02:42:43.334Z,16.80
2019-03-01T02:45:44.707Z,16.80
2019-03-01T02:48:46.085Z,16.80
2019-03-01T02:51:47.463Z,16.70
2019-03-01T02:54:48.831Z,16.70
2019-03-01T02:57:50.331Z,16.70
2019-03-01T03:00:51.699Z,16.70
2019-03-01T03:03:53.414Z,16.60
2019-03-01T03:07:16.951Z,16.60
2019-03-01T03:10:18.579Z,16.60
2019-03-01T03:13:20.184Z,16.50
2019-03-01T03:16:21.599Z,16.50
2019-03-01T03:19:23.138Z,16.50
2019-03-01T03:22:24.514Z,16.50
2019-03-01T03:25:25.895Z,16.50
2019-03-01T03:28:27.353Z,16.50
2019-03-01T03:31:28.748Z,16.40
2019-03-01T03:34:30.197Z,16.40
2019-03-01T03:37:31.659Z,16.40
2019-03-01T03:40:33.249Z,16.30
2019-03-01T03:43:34.624Z,16.30
2019-03-01T03:46:36.079Z,16.30
2019-03-01T03:49:37.493Z,16.30
2019-03-01T03:52:38.856Z,16.30
2019-03-01T03:55:40.256Z,16.20
2019-03-01T03:58:41.708Z,16.20
2019-03-01T04:01:43.060Z,16.20
2019-03-01T04:04:45.435Z,16.20
2019-03-01T04:07:47.686Z,16.20
2019-03-01T04:10:50.108Z,16.10
2019-03-01T04:13:51.643Z,16.10
2019-03-01T04:16:53.078Z,16.10
2019-03-01T04:19:54.468Z,16.10
2019-03-01T04:22:55.911Z,16.10
2019-03-01T04:25:57.370Z,16.10
2019-03-01T04:28:58.918Z,16.00
2019-03-01T04:32:00.593Z,16.00
2019-03-01T04:35:02.400Z,16.00
2019-03-01T04:38:03.978Z,15.90
2019-03-01T04:41:05.377Z,15.90
2019-03-01T04:44:06.739Z,16.00
2019-03-01T04:47:08.146Z,15.90
2019-03-01T04:50:11.202Z,15.90
2019-03-01T04:53:12.595Z,15.90
2019-03-01T04:56:14.205Z,15.90
2019-03-01T04:59:15.646Z,15.90
2019-03-01T05:02:17.036Z,15.80
2019-03-01T05:05:18.425Z,15.80
2019-03-01T05:08:19.894Z,15.80
2019-03-01T05:11:21.323Z,15.80
2019-03-01T05:14:22.714Z,15.80
2019-03-01T05:17:24.202Z,15.80
2019-03-01T05:20:25.573Z,15.80
2019-03-01T05:23:26.931Z,15.70
2019-03-01T05:26:28.355Z,15.70
2019-03-01T05:29:29.798Z,15.70
2019-03-01T05:32:31.230Z,15.70
2019-03-01T05:35:32.632Z,15.70
2019-03-01T05:38:34.041Z,15.70
2019-03-01T05:41:35.425Z,15.60
2019-03-01T05:44:36.884Z,15.60
2019-03-01T05:47:38.293Z,15.60
2019-03-01T05:50:39.712Z,15.60
2019-03-01T05:53:41.201Z,15.60
2019-03-01T05:56:42.589Z,15.50
2019-03-01T05:59:43.940Z,15.50
2019-03-01T06:03:21.402Z,15.50
2019-03-01T06:06:31.356Z,15.50
2019-03-01T06:10:19.518Z,15.50
2019-03-01T06:14:25.671Z,15.40
2019-03-01T06:17:49.383Z,15.40
2019-03-01T06:21:47.948Z,15.40
2019-03-01T06:25:19.179Z,15.40
2019-03-01T06:28:56.611Z,15.30
2019-03-01T06:32:49.144Z,15.30
2019-03-01T06:36:11.141Z,15.30
2019-03-01T06:39:49.506Z,15.30
2019-03-01T06:44:27.657Z,15.30
2019-03-01T06:47:49.484Z,15.30
2019-03-01T06:51:02.991Z,15.30
2019-03-01T06:54:04.444Z,15.20
2019-03-01T06:57:06.399Z,15.20
2019-03-01T07:00:09.329Z,15.20
2019-03-01T07:03:11.287Z,15.20
2019-03-01T07:06:12.769Z,15.20
2019-03-01T07:09:14.531Z,15.10
2019-03-01T07:12:15.975Z,15.10
2019-03-01T07:15:17.635Z,15.10
2019-03-01T07:18:19.142Z,15.10
2019-03-01T07:21:20.614Z,15.00
2019-03-01T07:24:22.032Z,15.00
2019-03-01T07:27:24.531Z,15.10
2019-03-01T07:30:25.932Z,15.00
2019-03-01T07:33:27.484Z,15.00
2019-03-01T07:36:29.941Z,15.10
2019-03-01T07:39:31.456Z,15.00
2019-03-01T07:42:32.863Z,15.00
2019-03-01T07:45:34.301Z,15.00
2019-03-01T07:48:35.817Z,15.00
2019-03-01T07:51:37.501Z,15.00
2019-03-01T07:54:38.979Z,15.00
2019-03-01T07:57:40.407Z,15.00
2019-03-01T08:00:41.821Z,15.00
2019-03-01T08:03:43.211Z,15.00
2019-03-01T08:06:45.515Z,15.00
2019-03-01T08:09:47.867Z,15.00
2019-03-01T08:12:49.382Z,15.00
2019-03-01T08:15:50.814Z,15.00
2019-03-01T08:18:52.291Z,14.90
2019-03-01T08:21:53.857Z,15.00
2019-03-01T08:24:55.419Z,14.90
2019-03-01T08:27:56.853Z,14.90
2019-03-01T08:30:58.281Z,14.90
2019-03-01T08:33:59.697Z,14.90
2019-03-01T08:37:01.170Z,14.90
2019-03-01T08:40:03.082Z,14.90
2019-03-01T08:43:04.550Z,14.90
2019-03-01T08:46:09.380Z,14.90
2019-03-01T08:49:10.617Z,14.80
2019-03-01T08:52:12.660Z,14.90
2019-03-01T08:55:16.911Z,14.90
2019-03-01T08:58:18.392Z,14.90
2019-03-01T09:01:20.264Z,14.90
2019-03-01T09:04:23.115Z,14.90
2019-03-01T09:07:27.170Z,15.00
2019-03-01T09:10:29.197Z,14.90
2019-03-01T09:13:31.216Z,15.00
2019-03-01T09:16:32.713Z,14.90
2019-03-01T09:19:34.399Z,14.90
2019-03-01T09:22:35.856Z,14.90
2019-03-01T09:25:37.371Z,14.90
2019-03-01T09:28:40.153Z,14.90
2019-03-01T09:31:41.678Z,14.90
2019-03-01T09:34:43.341Z,14.90
2019-03-01T09:37:44.848Z,14.90
2019-03-01T09:40:46.297Z,14.90
2019-03-01T09:43:47.746Z,14.90
2019-03-01T09:46:49.222Z,14.90
2019-03-01T09:49:51.064Z,14.90
2019-03-01T09:52:55.531Z,14.90
2019-03-01T09:55:55.778Z,14.90
2019-03-01T09:58:57.414Z,14.90
2019-03-01T10:01:58.897Z,14.90
2019-03-01T10:05:00.439Z,14.90
2019-03-01T10:08:01.938Z,14.90
2019-03-01T10:11:03.762Z,14.90
2019-03-01T10:14:05.308Z,14.90
2019-03-01T10:17:06.865Z,14.90
2019-03-01T10:20:11.938Z,14.90
2019-03-01T10:23:13.433Z,14.90
2019-03-01T10:26:15.047Z,14.90
2019-03-01T10:29:16.539Z,14.90
2019-03-01T10:32:17.971Z,14.90
2019-03-01T10:35:19.922Z,14.90
2019-03-01T10:38:21.422Z,15.00
2019-03-01T10:41:23.036Z,15.00
2019-03-01T10:44:25.059Z,15.00
2019-03-01T10:47:26.832Z,15.00
2019-03-01T10:50:28.238Z,15.00
2019-03-01T10:53:29.753Z,15.00
2019-03-01T10:56:31.185Z,15.10
2019-03-01T10:59:32.660Z,15.10
2019-03-01T11:02:34.103Z,15.20
2019-03-01T11:05:35.560Z,15.20
2019-03-01T11:08:37.348Z,15.20
2019-03-01T11:11:41.277Z,15.20
2019-03-01T11:14:43.125Z,15.30
2019-03-01T11:17:44.664Z,15.30
2019-03-01T11:20:46.101Z,15.40
2019-03-01T11:23:47.540Z,15.40
2019-03-01T11:26:49.231Z,15.40
2019-03-01T11:29:50.697Z,15.40
2019-03-01T11:32:52.186Z,15.40
2019-03-01T11:35:53.970Z,15.40
2019-03-01T11:38:55.507Z,15.40
2019-03-01T11:41:57.035Z,15.40
2019-03-01T11:44:58.546Z,15.40
2019-03-01T11:48:00.063Z,15.40
2019-03-01T11:51:01.508Z,15.50
2019-03-01T11:54:03.443Z,15.50
2019-03-01T11:57:04.965Z,15.50
2019-03-01T12:00:08.074Z,15.60
2019-03-01T12:03:10.551Z,15.60
2019-03-01T12:06:11.998Z,15.70
2019-03-01T12:09:13.623Z,15.80
2019-03-01T12:12:15.116Z,16.00
2019-03-01T12:15:16.684Z,16.10
2019-03-01T12:18:18.552Z,16.10
2019-03-01T12:21:20.061Z,16.20
2019-03-01T12:24:21.691Z,16.10
2019-03-01T12:27:23.234Z,16.10
2019-03-01T12:30:25.317Z,16.10
2019-03-01T12:33:27.418Z,16.10
2019-03-01T12:36:28.958Z,16.10
2019-03-01T12:39:30.521Z,16.00
2019-03-01T12:42:32.068Z,16.00
2019-03-01T12:45:33.614Z,16.00
2019-03-01T12:48:35.093Z,16.00
2019-03-01T12:51:36.921Z,16.00
2019-03-01T12:54:38.447Z,16.00
2019-03-01T12:57:40.202Z,15.90
2019-03-01T13:00:41.669Z,16.00
2019-03-01T13:03:43.829Z,15.90
2019-03-01T13:06:46.140Z,15.90
2019-03-01T13:09:47.843Z,16.00
2019-03-01T13:12:49.495Z,16.00
2019-03-01T13:15:52.214Z,16.00
2019-03-01T13:18:53.809Z,16.00
2019-03-01T13:21:55.270Z,15.90
2019-03-01T13:24:56.840Z,15.90
2019-03-01T13:27:58.590Z,15.90
2019-03-01T13:31:00.145Z,15.90
2019-03-01T13:34:01.680Z,15.90
2019-03-01T13:37:05.101Z,15.90
2019-03-01T13:40:09.380Z,15.90
2019-03-01T13:43:10.926Z,15.90
2019-03-01T13:46:12.456Z,15.90
2019-03-01T13:49:13.939Z,15.90
2019-03-01T13:52:15.453Z,15.90
2019-03-01T13:55:18.611Z,15.90
2019-03-01T13:58:20.569Z,16.00
2019-03-01T14:01:23.713Z,16.00
2019-03-01T14:04:26.339Z,16.10
2019-03-01T14:07:28.062Z,16.20
2019-03-01T14:10:29.629Z,16.30
2019-03-01T14:13:31.067Z,16.40
2019-03-01T14:16:32.848Z,16.50
2019-03-01T14:19:34.430Z,16.50
2019-03-01T14:22:35.963Z,16.50
2019-03-01T14:25:38.570Z,16.60
2019-03-01T14:28:41.229Z,16.60
2019-03-01T14:31:43.805Z,16.60
2019-03-01T14:34:48.661Z,16.60
2019-03-01T14:37:54.140Z,16.70
2019-03-01T14:40:51.957Z,16.70
2019-03-01T14:43:58.636Z,16.70
2019-03-01T14:46:57.080Z,16.70
2019-03-01T14:49:59.113Z,16.70
2019-03-01T14:53:00.548Z,16.70
2019-03-01T14:56:18.046Z,16.70
2019-03-01T14:59:54.909Z,16.60
2019-03-01T15:03:36.475Z,16.60
2019-03-01T15:06:37.996Z,16.60
2019-03-01T15:09:39.454Z,16.50
2019-03-01T15:12:41.004Z,16.40
2019-03-01T15:15:42.499Z,16.40
2019-03-01T15:18:44.420Z,16.40
2019-03-01T15:21:47.025Z,16.30
2019-03-01T15:24:48.593Z,16.30
2019-03-01T15:27:50.053Z,16.30
2019-03-01T15:30:51.599Z,16.30
2019-03-01T15:33:53.404Z,16.30
2019-03-01T15:36:56.088Z,16.30
2019-03-01T15:39:58.254Z,16.30
2019-03-01T15:42:59.732Z,16.20
2019-03-01T15:46:01.381Z,16.20
2019-03-01T15:49:02.856Z,16.20
2019-03-01T15:52:04.407Z,16.20
2019-03-01T15:55:07.713Z,16.10
2019-03-01T15:58:10.735Z,16.10
2019-03-01T16:01:12.997Z,16.10
2019-03-01T16:04:14.578Z,16.10
2019-03-01T16:07:16.098Z,16.00
2019-03-01T16:10:17.669Z,16.00
2019-03-01T16:13:19.468Z,16.00
2019-03-01T16:16:20.946Z,15.90
2019-03-01T16:19:22.446Z,15.90
2019-03-01T16:22:23.930Z,15.90
2019-03-01T16:25:25.449Z,15.90
2019-03-01T16:28:27.453Z,15.80
2019-03-01T16:31:32.097Z,15.80
2019-03-01T16:34:33.412Z,15.80
2019-03-01T16:37:34.979Z,15.70
2019-03-01T16:40:36.468Z,15.70
2019-03-01T16:43:38.203Z,15.70
2019-03-01T16:46:40.115Z,15.60
2019-03-01T16:49:42.148Z,15.60
2019-03-01T16:52:44.996Z,15.60
2019-03-01T16:55:46.507Z,15.60
2019-03-01T16:58:48.001Z,15.50
2019-03-01T17:01:50.431Z,15.50
2019-03-01T17:04:52.382Z,15.50
2019-03-01T17:07:53.933Z,15.40
2019-03-01T17:10:55.501Z,15.40
2019-03-01T17:13:59.571Z,15.40
2019-03-01T17:17:00.737Z,15.40
2019-03-01T17:20:03.744Z,15.30
2019-03-01T17:23:06.558Z,15.30
2019-03-01T17:26:08.189Z,15.30
2019-03-01T17:29:09.697Z,15.30
2019-03-01T17:32:11.240Z,15.20
2019-03-01T17:35:13.150Z,15.20
2019-03-01T17:38:14.748Z,15.20
2019-03-01T17:41:16.203Z,15.10
2019-03-01T17:44:17.712Z,15.10
2019-03-01T17:47:19.233Z,15.10
2019-03-01T17:50:20.784Z,15.10
2019-03-01T17:53:22.457Z,15.00
2019-03-01T17:56:24.026Z,15.00
2019-03-01T17:59:25.539Z,15.00
2019-03-01T18:02:27.047Z,15.00
2019-03-01T18:05:28.604Z,14.90
2019-03-01T18:08:30.543Z,14.90
2019-03-01T18:11:31.999Z,14.90
2019-03-01T18:14:33.842Z,14.90
2019-03-01T18:17:37.616Z,14.80
2019-03-01T18:20:39.167Z,14.80
2019-03-01T18:23:40.884Z,14.80
2019-03-01T18:26:42.432Z,14.80
2019-03-01T18:29:44.516Z,14.80
2019-03-01T18:32:46.136Z,14.70
2019-03-01T18:35:48.941Z,14.70
2019-03-01T18:38:51.031Z,14.70
2019-03-01T18:41:53.386Z,14.70
2019-03-01T18:44:55.086Z,14.60
2019-03-01T18:47:56.696Z,14.60
2019-03-01T18:50:58.410Z,14.60
2019-03-01T18:54:00.677Z,14.60
2019-03-01T18:57:03.797Z,14.60
2019-03-01T19:00:16.936Z,14.50
2019-03-01T19:03:19.345Z,14.50
2019-03-01T19:06:20.898Z,14.50
2019-03-01T19:09:22.572Z,14.50
2019-03-01T19:12:24.788Z,14.50
2019-03-01T19:15:26.284Z,14.50
2019-03-01T19:18:27.956Z,14.40
2019-03-01T19:21:29.660Z,14.40
2019-03-01T19:24:31.193Z,14.40
2019-03-01T19:27:32.865Z,14.40
2019-03-01T19:30:34.406Z,14.40
2019-03-01T19:33:37.881Z,14.30
2019-03-01T19:36:39.679Z,14.30
2019-03-01T19:39:41.241Z,14.30
2019-03-01T19:42:42.897Z,14.30
2019-03-01T19:45:44.857Z,14.20
2019-03-01T19:48:46.464Z,14.20
2019-03-01T19:51:48.040Z,14.20
2019-03-01T19:54:49.657Z,14.20
2019-03-01T19:57:51.439Z,14.20
2019-03-01T20:00:53.003Z,14.10
2019-03-01T20:03:57.055Z,14.10
2019-03-01T20:06:58.735Z,14.10
2019-03-01T20:10:00.332Z,14.10
2019-03-01T20:13:01.951Z,14.10
2019-03-01T20:16:03.859Z,14.00
2019-03-01T20:19:05.553Z,14.00
2019-03-01T20:22:07.200Z,14.00
2019-03-01T20:25:12.705Z,14.00
2019-03-01T20:28:15.275Z,14.00
2019-03-01T20:31:17.846Z,14.00
2019-03-01T20:34:19.403Z,13.90
2019-03-01T20:37:20.934Z,13.90
2019-03-01T20:40:26.823Z,13.90
2019-03-01T20:43:26.378Z,13.90
2019-03-01T20:46:27.878Z,13.90
2019-03-01T20:49:30.511Z,13.80
2019-03-01T20:52:34.850Z,13.80
2019-03-01T20:55:37.110Z,13.80
2019-03-01T20:58:39.546Z,13.80
2019-03-01T21:01:42.023Z,13.80
2019-03-01T21:04:53.010Z,13.80
2019-03-01T21:07:48.215Z,13.70
2019-03-01T21:10:50.850Z,13.70
2019-03-01T21:13:52.468Z,13.70
2019-03-01T21:16:53.994Z,13.70
2019-03-01T21:19:55.883Z,13.70
2019-03-01T21:22:57.667Z,13.60
2019-03-01T21:26:00.641Z,13.60
2019-03-01T21:29:02.248Z,13.60
2019-03-01T21:32:04.064Z,13.60
2019-03-01T21:35:06.191Z,13.60
2019-03-01T21:38:10.653Z,13.60
2019-03-01T21:41:11.626Z,13.60
2019-03-01T21:44:13.711Z,13.60
2019-03-01T21:47:16.443Z,13.50
2019-03-01T21:50:18.119Z,13.50
2019-03-01T21:53:19.650Z,13.50
2019-03-01T21:56:21.460Z,13.50
2019-03-01T21:59:22.976Z,13.50
2019-03-01T22:02:24.566Z,13.40
2019-03-01T22:05:26.272Z,13.40
2019-03-01T22:08:27.952Z,13.40
2019-03-01T22:11:29.507Z,13.40
2019-03-01T22:14:31.072Z,13.40
2019-03-01T22:17:32.538Z,13.40
2019-03-01T22:20:34.042Z,13.40
2019-03-01T22:23:35.502Z,13.30
2019-03-01T22:26:37.013Z,13.30
2019-03-01T22:29:38.485Z,13.30
2019-03-01T22:32:42.337Z,13.30
2019-03-01T22:35:44.587Z,13.30
2019-03-01T22:38:46.257Z,13.30
2019-03-01T22:41:47.703Z,13.30
2019-03-01T22:44:49.400Z,13.20
2019-03-01T22:47:50.829Z,13.20
2019-03-01T22:50:52.726Z,13.20
2019-03-01T22:53:54.371Z,13.20
2019-03-01T22:56:55.924Z,13.20
2019-03-01T22:59:58.047Z,13.20
2019-03-01T23:02:59.539Z,13.10
2019-03-01T23:06:01.050Z,13.10
2019-03-01T23:09:04.116Z,13.10
2019-03-01T23:12:08.078Z,13.10
2019-03-01T23:15:10.304Z,13.10
2019-03-01T23:18:12.004Z,13.10
2019-03-01T23:21:13.873Z,13.10
2019-03-01T23:24:17.283Z,13.10
2019-03-01T23:27:18.756Z,13.10
2019-03-01T23:30:20.677Z,13.00
2019-03-01T23:33:22.224Z,13.00
2019-03-01T23:36:24.948Z,13.00
2019-03-01T23:39:26.853Z,13.00
2019-03-01T23:42:28.316Z,13.00
2019-03-01T23:45:29.824Z,13.00
2019-03-01T23:48:31.270Z,13.00
2019-03-01T23:51:32.776Z,12.90
2019-03-01T23:54:34.269Z,12.90
2019-03-01T23:57:37.945Z,12.90
